sensor_id;sensor_type;location;lat;lon;timestamp;pressure;altitude;pressure_sealevel;temperature;humidity
71772;BME280;59606;52.138;5.424;2022-12-18T00:02:14;103049.56;;;-3.22;93.99
71772;BME280;59606;52.138;5.424;2022-12-18T00:04:41;103043.41;;;-3.27;93.78
71772;BME280;59606;52.138;5.424;2022-12-18T00:07:07;103038.94;;;-3.33;93.47
71772;BME280;59606;52.138;5.424;2022-12-18T00:09:34;103030.28;;;-3.38;93.25
71772;BME280;59606;52.138;5.424;2022-12-18T00:12:06;103022.50;;;-3.41;93.23
71772;BME280;59606;52.138;5.424;2022-12-18T00:14:44;103026.50;;;-3.47;93.44
71772;BME280;59606;52.138;5.424;2022-12-18T00:17:10;103027.44;;;-3.45;93.67
71772;BME280;59606;52.138;5.424;2022-12-18T00:19:37;103029.06;;;-3.47;93.63
71772;BME280;59606;52.138;5.424;2022-12-18T00:22:03;103032.41;;;-3.48;93.29
71772;BME280;59606;52.138;5.424;2022-12-18T00:24:31;103033.91;;;-3.53;93.50
71772;BME280;59606;52.138;5.424;2022-12-18T00:26:57;103040.81;;;-3.51;93.64
71772;BME280;59606;52.138;5.424;2022-12-18T00:29:24;103038.38;;;-3.48;93.60
71772;BME280;59606;52.138;5.424;2022-12-18T00:31:50;103037.69;;;-3.44;93.56
71772;BME280;59606;52.138;5.424;2022-12-18T00:34:17;103034.25;;;-3.44;93.60
71772;BME280;59606;52.138;5.424;2022-12-18T00:36:43;103030.97;;;-3.42;93.88
71772;BME280;59606;52.138;5.424;2022-12-18T00:39:10;103026.78;;;-3.40;93.40
71772;BME280;59606;52.138;5.424;2022-12-18T00:41:38;103027.66;;;-3.39;93.73
71772;BME280;59606;52.138;5.424;2022-12-18T00:44:23;103016.44;;;-3.44;93.61
71772;BME280;59606;52.138;5.424;2022-12-18T00:46:49;103020.53;;;-3.48;93.61
71772;BME280;59606;52.138;5.424;2022-12-18T00:49:18;103030.03;;;-3.44;93.53
71772;BME280;59606;52.138;5.424;2022-12-18T00:51:45;103033.41;;;-3.45;93.67
71772;BME280;59606;52.138;5.424;2022-12-18T00:54:12;103035.00;;;-3.47;93.86
71772;BME280;59606;52.138;5.424;2022-12-18T00:56:39;103026.38;;;-3.50;93.98
71772;BME280;59606;52.138;5.424;2022-12-18T00:59:14;103032.22;;;-3.53;93.65
71772;BME280;59606;52.138;5.424;2022-12-18T01:01:40;103025.44;;;-3.52;93.63
71772;BME280;59606;52.138;5.424;2022-12-18T01:04:07;103027.19;;;-3.51;93.69
71772;BME280;59606;52.138;5.424;2022-12-18T01:06:34;103023.78;;;-3.52;93.57
71772;BME280;59606;52.138;5.424;2022-12-18T01:09:01;103014.25;;;-3.56;93.85
71772;BME280;59606;52.138;5.424;2022-12-18T01:11:28;103019.44;;;-3.54;93.92
71772;BME280;59606;52.138;5.424;2022-12-18T01:13:55;103009.28;;;-3.53;93.93
71772;BME280;59606;52.138;5.424;2022-12-18T01:16:21;103015.94;;;-3.57;94.14
71772;BME280;59606;52.138;5.424;2022-12-18T01:18:51;103020.06;;;-3.60;93.25
71772;BME280;59606;52.138;5.424;2022-12-18T01:21:18;103022.59;;;-3.60;93.41
71772;BME280;59606;52.138;5.424;2022-12-18T01:23:46;103029.50;;;-3.58;93.74
71772;BME280;59606;52.138;5.424;2022-12-18T01:26:16;103015.78;;;-3.61;93.63
71772;BME280;59606;52.138;5.424;2022-12-18T01:28:42;103032.75;;;-3.62;93.94
71772;BME280;59606;52.138;5.424;2022-12-18T01:33:39;103031.84;;;-3.62;93.53
71772;BME280;59606;52.138;5.424;2022-12-18T01:36:13;103033.41;;;-3.66;93.59
71772;BME280;59606;52.138;5.424;2022-12-18T01:38:40;103044.53;;;-3.64;93.26
71772;BME280;59606;52.138;5.424;2022-12-18T01:41:08;103042.81;;;-3.65;93.58
71772;BME280;59606;52.138;5.424;2022-12-18T01:46:13;103032.31;;;-3.72;93.53
71772;BME280;59606;52.138;5.424;2022-12-18T01:48:40;103048.34;;;-3.75;93.71
71772;BME280;59606;52.138;5.424;2022-12-18T01:51:09;103048.28;;;-3.76;93.39
71772;BME280;59606;52.138;5.424;2022-12-18T01:53:39;103038.66;;;-3.84;93.61
71772;BME280;59606;52.138;5.424;2022-12-18T01:56:07;103044.50;;;-3.86;93.57
71772;BME280;59606;52.138;5.424;2022-12-18T01:58:43;103039.28;;;-3.89;93.62
71772;BME280;59606;52.138;5.424;2022-12-18T02:01:12;103042.38;;;-3.96;93.60
71772;BME280;59606;52.138;5.424;2022-12-18T02:03:43;103038.00;;;-4.00;93.16
71772;BME280;59606;52.138;5.424;2022-12-18T02:06:24;103050.66;;;-4.02;93.16
71772;BME280;59606;52.138;5.424;2022-12-18T02:09:12;103054.75;;;-4.06;93.00
71772;BME280;59606;52.138;5.424;2022-12-18T02:14:34;103050.28;;;-4.11;93.41
71772;BME280;59606;52.138;5.424;2022-12-18T02:20:43;103051.75;;;-4.16;93.10
71772;BME280;59606;52.138;5.424;2022-12-18T02:26:41;103051.31;;;-4.27;93.24
71772;BME280;59606;52.138;5.424;2022-12-18T02:29:23;103060.56;;;-4.29;93.07
71772;BME280;59606;52.138;5.424;2022-12-18T02:31:56;103068.22;;;-4.29;92.95
71772;BME280;59606;52.138;5.424;2022-12-18T02:34:29;103047.78;;;-4.31;93.02
71772;BME280;59606;52.138;5.424;2022-12-18T02:36:58;103057.81;;;-4.34;92.99
71772;BME280;59606;52.138;5.424;2022-12-18T02:39:27;103048.47;;;-4.35;93.05
71772;BME280;59606;52.138;5.424;2022-12-18T02:41:56;103044.97;;;-4.37;92.73
71772;BME280;59606;52.138;5.424;2022-12-18T02:44:23;103049.19;;;-4.37;92.84
71772;BME280;59606;52.138;5.424;2022-12-18T02:46:51;103036.34;;;-4.40;92.64
71772;BME280;59606;52.138;5.424;2022-12-18T02:52:05;103030.34;;;-4.42;93.28
71772;BME280;59606;52.138;5.424;2022-12-18T02:55:00;103036.16;;;-4.45;93.30
71772;BME280;59606;52.138;5.424;2022-12-18T02:57:42;103030.84;;;-4.50;92.91
71772;BME280;59606;52.138;5.424;2022-12-18T03:00:16;103029.94;;;-4.52;92.49
71772;BME280;59606;52.138;5.424;2022-12-18T03:03:03;103029.00;;;-4.54;92.33
71772;BME280;59606;52.138;5.424;2022-12-18T03:06:10;103020.50;;;-4.54;93.02
71772;BME280;59606;52.138;5.424;2022-12-18T03:08:45;103011.88;;;-4.58;93.13
71772;BME280;59606;52.138;5.424;2022-12-18T03:11:13;103016.09;;;-4.58;92.65
71772;BME280;59606;52.138;5.424;2022-12-18T03:13:48;103016.81;;;-4.61;92.61
71772;BME280;59606;52.138;5.424;2022-12-18T03:16:22;103014.09;;;-4.65;92.90
71772;BME280;59606;52.138;5.424;2022-12-18T03:18:58;103013.97;;;-4.68;92.73
71772;BME280;59606;52.138;5.424;2022-12-18T03:21:40;103018.19;;;-4.69;92.82
71772;BME280;59606;52.138;5.424;2022-12-18T03:24:09;103006.19;;;-4.71;92.62
71772;BME280;59606;52.138;5.424;2022-12-18T03:26:41;103003.56;;;-4.73;92.73
71772;BME280;59606;52.138;5.424;2022-12-18T03:29:18;102996.75;;;-4.74;92.51
71772;BME280;59606;52.138;5.424;2022-12-18T03:31:49;103000.13;;;-4.75;92.70
71772;BME280;59606;52.138;5.424;2022-12-18T03:34:23;103000.03;;;-4.77;92.69
71772;BME280;59606;52.138;5.424;2022-12-18T03:36:50;102994.75;;;-4.81;92.38
71772;BME280;59606;52.138;5.424;2022-12-18T03:39:17;102984.53;;;-4.83;92.30
71772;BME280;59606;52.138;5.424;2022-12-18T03:41:48;102981.91;;;-4.84;92.06
71772;BME280;59606;52.138;5.424;2022-12-18T03:47:09;102985.13;;;-4.88;92.29
71772;BME280;59606;52.138;5.424;2022-12-18T03:52:34;102984.00;;;-4.95;92.10
71772;BME280;59606;52.138;5.424;2022-12-18T03:55:05;102980.59;;;-4.95;92.15
71772;BME280;59606;52.138;5.424;2022-12-18T03:57:33;102984.69;;;-4.99;92.19
71772;BME280;59606;52.138;5.424;2022-12-18T04:00:05;102978.66;;;-5.01;92.00
71772;BME280;59606;52.138;5.424;2022-12-18T04:02:33;102976.91;;;-5.02;91.77
71772;BME280;59606;52.138;5.424;2022-12-18T04:05:04;102972.63;;;-5.03;91.90
71772;BME280;59606;52.138;5.424;2022-12-18T04:07:32;102971.75;;;-5.04;91.93
71772;BME280;59606;52.138;5.424;2022-12-18T04:10:00;102968.28;;;-5.06;92.00
71772;BME280;59606;52.138;5.424;2022-12-18T04:12:29;102964.75;;;-5.09;91.66
71772;BME280;59606;52.138;5.424;2022-12-18T04:14:56;102966.47;;;-5.08;92.10
71772;BME280;59606;52.138;5.424;2022-12-18T04:17:23;102955.38;;;-5.10;91.85
71772;BME280;59606;52.138;5.424;2022-12-18T04:19:50;102952.78;;;-5.12;91.75
71772;BME280;59606;52.138;5.424;2022-12-18T04:22:16;102945.88;;;-5.14;92.13
71772;BME280;59606;52.138;5.424;2022-12-18T04:24:43;102955.09;;;-5.16;91.79
71772;BME280;59606;52.138;5.424;2022-12-18T04:27:09;102950.91;;;-5.16;91.71
71772;BME280;59606;52.138;5.424;2022-12-18T04:29:36;102939.75;;;-5.19;91.76
71772;BME280;59606;52.138;5.424;2022-12-18T04:32:02;102948.22;;;-5.19;91.94
71772;BME280;59606;52.138;5.424;2022-12-18T04:34:29;102940.59;;;-5.19;91.68
71772;BME280;59606;52.138;5.424;2022-12-18T04:36:56;102943.88;;;-5.22;91.55
71772;BME280;59606;52.138;5.424;2022-12-18T04:39:22;102944.69;;;-5.23;91.81
71772;BME280;59606;52.138;5.424;2022-12-18T04:41:49;102947.94;;;-5.25;91.69
71772;BME280;59606;52.138;5.424;2022-12-18T04:44:17;102956.31;;;-5.28;91.58
71772;BME280;59606;52.138;5.424;2022-12-18T04:46:43;102963.06;;;-5.28;91.45
71772;BME280;59606;52.138;5.424;2022-12-18T04:49:10;102962.91;;;-5.31;91.63
71772;BME280;59606;52.138;5.424;2022-12-18T04:51:37;102976.44;;;-5.32;91.62
71772;BME280;59606;52.138;5.424;2022-12-18T04:54:03;102983.19;;;-5.33;91.94
71772;BME280;59606;52.138;5.424;2022-12-18T04:56:31;102983.97;;;-5.34;91.27
71772;BME280;59606;52.138;5.424;2022-12-18T04:58:58;102989.03;;;-5.34;91.79
71772;BME280;59606;52.138;5.424;2022-12-18T05:01:24;102989.00;;;-5.35;91.66
71772;BME280;59606;52.138;5.424;2022-12-18T05:03:59;102998.16;;;-5.39;91.67
71772;BME280;59606;52.138;5.424;2022-12-18T05:06:26;102996.38;;;-5.40;91.63
71772;BME280;59606;52.138;5.424;2022-12-18T05:08:52;102997.19;;;-5.41;91.61
71772;BME280;59606;52.138;5.424;2022-12-18T05:11:19;103007.34;;;-5.41;91.63
71772;BME280;59606;52.138;5.424;2022-12-18T05:13:45;103001.34;;;-5.43;91.65
71772;BME280;59606;52.138;5.424;2022-12-18T05:16:15;103004.75;;;-5.42;91.27
71772;BME280;59606;52.138;5.424;2022-12-18T05:18:42;103004.66;;;-5.44;91.66
71772;BME280;59606;52.138;5.424;2022-12-18T05:21:09;103011.50;;;-5.43;91.88
71772;BME280;59606;52.138;5.424;2022-12-18T05:23:35;103017.38;;;-5.44;91.61
71772;BME280;59606;52.138;5.424;2022-12-18T05:26:05;103015.63;;;-5.45;91.79
71772;BME280;59606;52.138;5.424;2022-12-18T05:28:34;103027.47;;;-5.46;91.72
71772;BME280;59606;52.138;5.424;2022-12-18T05:31:02;103024.06;;;-5.46;91.46
71772;BME280;59606;52.138;5.424;2022-12-18T05:33:32;103036.75;;;-5.46;91.22
71772;BME280;59606;52.138;5.424;2022-12-18T05:36:04;103030.72;;;-5.48;91.63
71772;BME280;59606;52.138;5.424;2022-12-18T05:38:34;103034.06;;;-5.49;91.36
71772;BME280;59606;52.138;5.424;2022-12-18T05:41:01;103027.31;;;-5.49;91.75
71772;BME280;59606;52.138;5.424;2022-12-18T05:43:28;103023.16;;;-5.47;91.48
71772;BME280;59606;52.138;5.424;2022-12-18T05:45:57;103010.34;;;-5.50;91.25
71772;BME280;59606;52.138;5.424;2022-12-18T05:48:24;103003.47;;;-5.52;91.44
71772;BME280;59606;52.138;5.424;2022-12-18T05:50:51;103005.91;;;-5.54;90.78
71772;BME280;59606;52.138;5.424;2022-12-18T05:53:19;103009.25;;;-5.55;91.14
71772;BME280;59606;52.138;5.424;2022-12-18T05:55:47;102995.69;;;-5.55;91.22
71772;BME280;59606;52.138;5.424;2022-12-18T05:58:14;102995.56;;;-5.58;90.78
71772;BME280;59606;52.138;5.424;2022-12-18T06:00:45;102998.75;;;-5.62;91.37
71772;BME280;59606;52.138;5.424;2022-12-18T06:03:13;102990.19;;;-5.64;91.13
71772;BME280;59606;52.138;5.424;2022-12-18T06:05:43;102989.31;;;-5.65;91.58
71772;BME280;59606;52.138;5.424;2022-12-18T06:08:13;102989.31;;;-5.65;90.77
71772;BME280;59606;52.138;5.424;2022-12-18T06:10:40;102991.00;;;-5.65;91.27
71772;BME280;59606;52.138;5.424;2022-12-18T06:13:08;102991.81;;;-5.66;91.40
71772;BME280;59606;52.138;5.424;2022-12-18T06:15:38;102981.56;;;-5.68;91.30
71772;BME280;59606;52.138;5.424;2022-12-18T06:18:04;102973.81;;;-5.71;91.10
71772;BME280;59606;52.138;5.424;2022-12-18T06:20:31;102974.53;;;-5.74;91.11
71772;BME280;59606;52.138;5.424;2022-12-18T06:22:59;102975.28;;;-5.76;91.24
71772;BME280;59606;52.138;5.424;2022-12-18T06:25:26;102977.81;;;-5.76;91.35
71772;BME280;59606;52.138;5.424;2022-12-18T06:27:52;102966.66;;;-5.80;91.46
71772;BME280;59606;52.138;5.424;2022-12-18T06:30:19;102970.78;;;-5.82;90.95
71772;BME280;59606;52.138;5.424;2022-12-18T06:32:45;102969.91;;;-5.82;91.23
71772;BME280;59606;52.138;5.424;2022-12-18T06:35:21;102963.81;;;-5.86;91.36
71772;BME280;59606;52.138;5.424;2022-12-18T06:37:48;102958.59;;;-5.89;91.02
71772;BME280;59606;52.138;5.424;2022-12-18T06:40:15;102957.72;;;-5.89;91.25
71772;BME280;59606;52.138;5.424;2022-12-18T06:42:41;102955.91;;;-5.92;90.77
71772;BME280;59606;52.138;5.424;2022-12-18T06:45:08;102959.19;;;-5.95;91.23
71772;BME280;59606;52.138;5.424;2022-12-18T06:47:35;102960.00;;;-5.96;90.92
71772;BME280;59606;52.138;5.424;2022-12-18T06:50:02;102946.38;;;-5.98;91.17
71772;BME280;59606;52.138;5.424;2022-12-18T06:52:31;102938.69;;;-5.99;91.07
71772;BME280;59606;52.138;5.424;2022-12-18T06:54:58;102941.16;;;-6.01;91.21
71772;BME280;59606;52.138;5.424;2022-12-18T06:57:24;102941.94;;;-6.02;91.54
71772;BME280;59606;52.138;5.424;2022-12-18T06:59:51;102935.06;;;-6.04;91.11
71772;BME280;59606;52.138;5.424;2022-12-18T07:02:17;102929.97;;;-6.04;91.12
71772;BME280;59606;52.138;5.424;2022-12-18T07:04:44;102926.53;;;-6.06;91.15
71772;BME280;59606;52.138;5.424;2022-12-18T07:07:10;102918.78;;;-6.09;91.13
71772;BME280;59606;52.138;5.424;2022-12-18T07:09:37;102921.22;;;-6.11;91.29
71772;BME280;59606;52.138;5.424;2022-12-18T07:12:03;102922.06;;;-6.10;90.99
71772;BME280;59606;52.138;5.424;2022-12-18T07:14:31;102923.75;;;-6.11;91.59
71772;BME280;59606;52.138;5.424;2022-12-18T07:16:57;102922.06;;;-6.10;91.21
71772;BME280;59606;52.138;5.424;2022-12-18T07:19:25;102913.59;;;-6.11;91.10
71772;BME280;59606;52.138;5.424;2022-12-18T07:21:51;102912.84;;;-6.10;91.29
71772;BME280;59606;52.138;5.424;2022-12-18T07:24:18;102917.81;;;-6.11;91.26
71772;BME280;59606;52.138;5.424;2022-12-18T07:26:48;102922.03;;;-6.12;91.00
71772;BME280;59606;52.138;5.424;2022-12-18T07:29:14;102916.94;;;-6.12;91.11
71772;BME280;59606;52.138;5.424;2022-12-18T07:31:41;102915.22;;;-6.13;90.99
71772;BME280;59606;52.138;5.424;2022-12-18T07:34:14;102905.84;;;-6.14;91.58
71772;BME280;59606;52.138;5.424;2022-12-18T07:36:41;102893.97;;;-6.15;91.67
71772;BME280;59606;52.138;5.424;2022-12-18T07:39:07;102884.69;;;-6.14;91.76
71772;BME280;59606;52.138;5.424;2022-12-18T07:41:34;102891.38;;;-6.17;91.13
71772;BME280;59606;52.138;5.424;2022-12-18T07:44:00;102893.81;;;-6.18;91.42
71772;BME280;59606;52.138;5.424;2022-12-18T07:46:27;102881.22;;;-6.17;91.44
71772;BME280;59606;52.138;5.424;2022-12-18T07:48:53;102879.41;;;-6.19;91.68
71772;BME280;59606;52.138;5.424;2022-12-18T07:51:19;102875.16;;;-6.20;91.60
71772;BME280;59606;52.138;5.424;2022-12-18T07:53:46;102873.53;;;-6.18;91.51
71772;BME280;59606;52.138;5.424;2022-12-18T07:56:18;102858.41;;;-6.17;91.25
71772;BME280;59606;52.138;5.424;2022-12-18T07:58:55;102860.19;;;-6.14;91.82
71772;BME280;59606;52.138;5.424;2022-12-18T08:01:22;102863.69;;;-6.12;91.79
71772;BME280;59606;52.138;5.424;2022-12-18T08:03:49;102865.50;;;-6.09;91.76
71772;BME280;59606;52.138;5.424;2022-12-18T08:06:17;102865.63;;;-6.06;91.37
71772;BME280;59606;52.138;5.424;2022-12-18T08:08:44;102860.63;;;-6.05;91.80
71772;BME280;59606;52.138;5.424;2022-12-18T08:11:10;102839.59;;;-6.02;91.72
71772;BME280;59606;52.138;5.424;2022-12-18T08:13:36;102834.72;;;-5.98;92.08
71772;BME280;59606;52.138;5.424;2022-12-18T08:16:08;102829.88;;;-5.93;91.56
71772;BME280;59606;52.138;5.424;2022-12-18T08:18:36;102838.38;;;-5.91;92.04
71772;BME280;59606;52.138;5.424;2022-12-18T08:21:11;102851.19;;;-5.88;91.78
71772;BME280;59606;52.138;5.424;2022-12-18T08:23:39;102849.63;;;-5.86;92.02
71772;BME280;59606;52.138;5.424;2022-12-18T08:26:09;102853.97;;;-5.83;92.63
71772;BME280;59606;52.138;5.424;2022-12-18T08:28:36;102858.44;;;-5.78;92.61
71772;BME280;59606;52.138;5.424;2022-12-18T08:31:03;102861.09;;;-5.75;92.62
71772;BME280;59606;52.138;5.424;2022-12-18T08:33:30;102876.47;;;-5.72;92.79
71772;BME280;59606;52.138;5.424;2022-12-18T08:35:58;102879.16;;;-5.69;92.71
71772;BME280;59606;52.138;5.424;2022-12-18T08:38:24;102872.41;;;-5.68;92.69
71772;BME280;59606;52.138;5.424;2022-12-18T08:41:06;102872.41;;;-5.68;92.27
71772;BME280;59606;52.138;5.424;2022-12-18T08:43:36;102863.19;;;-5.66;92.50
71772;BME280;59606;52.138;5.424;2022-12-18T08:46:23;102855.63;;;-5.64;92.61
71772;BME280;59606;52.138;5.424;2022-12-18T08:48:50;102858.31;;;-5.61;92.44
71772;BME280;59606;52.138;5.424;2022-12-18T08:51:18;102863.53;;;-5.58;92.33
71772;BME280;59606;52.138;5.424;2022-12-18T08:53:44;102861.13;;;-5.55;92.21
71772;BME280;59606;52.138;5.424;2022-12-18T08:56:12;102861.31;;;-5.51;92.84
71772;BME280;59606;52.138;5.424;2022-12-18T08:58:42;102858.19;;;-5.45;92.63
71772;BME280;59606;52.138;5.424;2022-12-18T09:01:10;102863.59;;;-5.37;92.90
71772;BME280;59606;52.138;5.424;2022-12-18T09:03:40;102874.00;;;-5.31;92.88
71772;BME280;59606;52.138;5.424;2022-12-18T09:06:08;102876.75;;;-5.27;92.77
71772;BME280;59606;52.138;5.424;2022-12-18T09:08:35;102875.22;;;-5.23;92.79
71772;BME280;59606;52.138;5.424;2022-12-18T09:11:03;102865.25;;;-5.18;93.04
71772;BME280;59606;52.138;5.424;2022-12-18T09:13:30;102854.50;;;-5.13;92.68
71772;BME280;59606;52.138;5.424;2022-12-18T09:15:57;102866.50;;;-5.09;93.09
71772;BME280;59606;52.138;5.424;2022-12-18T09:18:23;102857.34;;;-5.05;92.86
71772;BME280;59606;52.138;5.424;2022-12-18T09:20:50;102851.66;;;-5.00;93.73
71772;BME280;59606;52.138;5.424;2022-12-18T09:23:20;102851.03;;;-4.94;92.86
71772;BME280;59606;52.138;5.424;2022-12-18T09:25:47;102858.03;;;-4.88;93.88
71772;BME280;59606;52.138;5.424;2022-12-18T09:28:15;102854.81;;;-4.84;93.49
71772;BME280;59606;52.138;5.424;2022-12-18T09:30:44;102858.34;;;-4.81;93.60
71772;BME280;59606;52.138;5.424;2022-12-18T09:33:11;102858.59;;;-4.75;93.77
71772;BME280;59606;52.138;5.424;2022-12-18T09:35:42;102854.63;;;-4.68;93.87
71772;BME280;59606;52.138;5.424;2022-12-18T09:38:11;102841.22;;;-4.64;93.56
71772;BME280;59606;52.138;5.424;2022-12-18T09:40:44;102832.13;;;-4.59;93.88
71772;BME280;59606;52.138;5.424;2022-12-18T09:43:30;102825.53;;;-4.54;93.97
71772;BME280;59606;52.138;5.424;2022-12-18T09:46:14;102823.31;;;-4.46;94.21
71772;BME280;59606;52.138;5.424;2022-12-18T09:48:45;102826.91;;;-4.39;94.28
71772;BME280;59606;52.138;5.424;2022-12-18T09:51:20;102822.84;;;-4.36;94.38
71772;BME280;59606;52.138;5.424;2022-12-18T09:53:56;102822.19;;;-4.30;94.32
71772;BME280;59606;52.138;5.424;2022-12-18T09:56:28;102810.53;;;-4.25;94.06
71772;BME280;59606;52.138;5.424;2022-12-18T09:58:58;102810.75;;;-4.19;94.19
71772;BME280;59606;52.138;5.424;2022-12-18T10:01:27;102806.66;;;-4.15;94.17
71772;BME280;59606;52.138;5.424;2022-12-18T10:04:11;102806.06;;;-4.08;94.36
71772;BME280;59606;52.138;5.424;2022-12-18T10:12:49;102801.59;;;-3.91;94.42
71772;BME280;59606;52.138;5.424;2022-12-18T10:17:45;102785.00;;;-3.80;94.09
71772;BME280;59606;52.138;5.424;2022-12-18T10:20:34;102792.84;;;-3.75;94.31
71772;BME280;59606;52.138;5.424;2022-12-18T10:23:28;102799.00;;;-3.69;94.17
71772;BME280;59606;52.138;5.424;2022-12-18T10:26:08;102799.16;;;-3.64;94.08
71772;BME280;59606;52.138;5.424;2022-12-18T10:28:40;102788.22;;;-3.62;94.09
71772;BME280;59606;52.138;5.424;2022-12-18T10:31:14;102792.66;;;-3.56;94.28
71772;BME280;59606;52.138;5.424;2022-12-18T10:33:43;102788.47;;;-3.54;93.66
71772;BME280;59606;52.138;5.424;2022-12-18T10:36:12;102775.03;;;-3.50;93.96
71772;BME280;59606;52.138;5.424;2022-12-18T10:38:39;102771.75;;;-3.46;94.16
71772;BME280;59606;52.138;5.424;2022-12-18T10:44:19;102780.56;;;-3.38;93.95
71772;BME280;59606;52.138;5.424;2022-12-18T10:46:49;102780.69;;;-3.33;93.76
71772;BME280;59606;52.138;5.424;2022-12-18T10:49:31;102767.19;;;-3.30;93.77
71772;BME280;59606;52.138;5.424;2022-12-18T10:54:46;102768.31;;;-3.22;93.58
71772;BME280;59606;52.138;5.424;2022-12-18T10:59:55;102767.75;;;-3.14;93.79
71772;BME280;59606;52.138;5.424;2022-12-18T11:02:34;102751.69;;;-3.11;93.40
71772;BME280;59606;52.138;5.424;2022-12-18T11:05:25;102745.88;;;-3.07;93.44
71772;BME280;59606;52.138;5.424;2022-12-18T11:07:50;102740.06;;;-3.03;93.22
71772;BME280;59606;52.138;5.424;2022-12-18T11:10:19;102740.16;;;-3.00;93.17
71772;BME280;59606;52.138;5.424;2022-12-18T11:12:46;102730.00;;;-2.98;93.20
71772;BME280;59606;52.138;5.424;2022-12-18T11:15:36;102724.22;;;-2.93;93.21
71772;BME280;59606;52.138;5.424;2022-12-18T11:18:05;102720.03;;;-2.91;92.74
71772;BME280;59606;52.138;5.424;2022-12-18T11:20:35;102721.03;;;-2.86;92.50
71772;BME280;59606;52.138;5.424;2022-12-18T11:23:12;102711.00;;;-2.81;92.47
71772;BME280;59606;52.138;5.424;2022-12-18T11:25:39;102700.91;;;-2.76;92.20
71772;BME280;59606;52.138;5.424;2022-12-18T11:33:45;102689.34;;;-2.65;91.84
71772;BME280;59606;52.138;5.424;2022-12-18T11:36:41;102707.38;;;-2.59;91.56
71772;BME280;59606;52.138;5.424;2022-12-18T11:39:18;102706.66;;;-2.55;91.68
71772;BME280;59606;52.138;5.424;2022-12-18T11:42:18;102693.19;;;-2.51;91.58
71772;BME280;59606;52.138;5.424;2022-12-18T11:44:52;102706.94;;;-2.46;91.36
71772;BME280;59606;52.138;5.424;2022-12-18T11:47:41;102696.81;;;-2.43;90.90
71772;BME280;59606;52.138;5.424;2022-12-18T11:50:20;102690.09;;;-2.39;91.08
71772;BME280;59606;52.138;5.424;2022-12-18T11:52:48;102691.06;;;-2.35;90.90
71772;BME280;59606;52.138;5.424;2022-12-18T11:58:27;102683.53;;;-2.31;90.50
71772;BME280;59606;52.138;5.424;2022-12-18T12:06:27;102665.81;;;-2.25;89.77
71772;BME280;59606;52.138;5.424;2022-12-18T12:09:26;102652.28;;;-2.22;89.86
71772;BME280;59606;52.138;5.424;2022-12-18T12:15:03;102643.00;;;-2.19;89.60
71772;BME280;59606;52.138;5.424;2022-12-18T12:17:45;102647.41;;;-2.15;89.56
71772;BME280;59606;52.138;5.424;2022-12-18T12:20:28;102638.94;;;-2.12;89.18
71772;BME280;59606;52.138;5.424;2022-12-18T12:23:08;102637.31;;;-2.08;89.70
71772;BME280;59606;52.138;5.424;2022-12-18T12:25:47;102638.25;;;-2.06;89.24
71772;BME280;59606;52.138;5.424;2022-12-18T12:39:33;102609.66;;;-1.92;88.39
71772;BME280;59606;52.138;5.424;2022-12-18T12:42:03;102605.47;;;-1.90;88.43
71772;BME280;59606;52.138;5.424;2022-12-18T12:44:55;102606.38;;;-1.87;88.36
71772;BME280;59606;52.138;5.424;2022-12-18T12:47:28;102602.16;;;-1.85;88.12
71772;BME280;59606;52.138;5.424;2022-12-18T12:49:58;102589.44;;;-1.84;88.34
71772;BME280;59606;52.138;5.424;2022-12-18T12:52:34;102594.56;;;-1.82;88.32
71772;BME280;59606;52.138;5.424;2022-12-18T12:55:05;102586.13;;;-1.80;87.89
71772;BME280;59606;52.138;5.424;2022-12-18T13:01:12;102584.50;;;-1.76;87.72
71772;BME280;59606;52.138;5.424;2022-12-18T13:09:14;102577.00;;;-1.70;87.68
71772;BME280;59606;52.138;5.424;2022-12-18T13:11:46;102580.44;;;-1.68;87.57
71772;BME280;59606;52.138;5.424;2022-12-18T13:14:38;102576.22;;;-1.68;87.89
71772;BME280;59606;52.138;5.424;2022-12-18T13:19:50;102583.97;;;-1.63;87.03
71772;BME280;59606;52.138;5.424;2022-12-18T13:22:31;102577.19;;;-1.62;87.21
71772;BME280;59606;52.138;5.424;2022-12-18T13:28:05;102574.69;;;-1.61;86.99
71772;BME280;59606;52.138;5.424;2022-12-18T13:41:01;102554.34;;;-1.55;87.02
71772;BME280;59606;52.138;5.424;2022-12-18T13:46:21;102548.44;;;-1.54;86.58
71772;BME280;59606;52.138;5.424;2022-12-18T13:51:23;102528.88;;;-1.52;85.97
71772;BME280;59606;52.138;5.424;2022-12-18T13:56:54;102525.50;;;-1.49;86.06
71772;BME280;59606;52.138;5.424;2022-12-18T13:59:33;102519.56;;;-1.50;86.21
71772;BME280;59606;52.138;5.424;2022-12-18T14:02:26;102520.44;;;-1.48;85.60
71772;BME280;59606;52.138;5.424;2022-12-18T14:05:00;102523.88;;;-1.46;85.54
71772;BME280;59606;52.138;5.424;2022-12-18T14:07:39;102516.22;;;-1.46;85.30
71772;BME280;59606;52.138;5.424;2022-12-18T14:10:16;102511.16;;;-1.44;85.14
71772;BME280;59606;52.138;5.424;2022-12-18T14:13:32;102507.75;;;-1.43;85.23
71772;BME280;59606;52.138;5.424;2022-12-18T14:16:14;102508.63;;;-1.41;84.85
71772;BME280;59606;52.138;5.424;2022-12-18T14:18:55;102499.31;;;-1.40;85.18
71772;BME280;59606;52.138;5.424;2022-12-18T14:21:48;102489.09;;;-1.40;84.79
71772;BME280;59606;52.138;5.424;2022-12-18T14:24:30;102493.41;;;-1.36;84.44
71772;BME280;59606;52.138;5.424;2022-12-18T14:27:24;102482.34;;;-1.37;84.77
71772;BME280;59606;52.138;5.424;2022-12-18T14:29:55;102484.00;;;-1.39;85.13
71772;BME280;59606;52.138;5.424;2022-12-18T14:32:27;102477.25;;;-1.35;84.68
71772;BME280;59606;52.138;5.424;2022-12-18T14:34:59;102467.94;;;-1.33;84.50
71772;BME280;59606;52.138;5.424;2022-12-18T14:37:52;102465.31;;;-1.35;84.49
71772;BME280;59606;52.138;5.424;2022-12-18T14:40:38;102465.38;;;-1.33;84.56
71772;BME280;59606;52.138;5.424;2022-12-18T14:43:12;102464.53;;;-1.32;84.38
71772;BME280;59606;52.138;5.424;2022-12-18T14:48:49;102469.69;;;-1.31;84.36
71772;BME280;59606;52.138;5.424;2022-12-18T14:51:23;102456.03;;;-1.31;83.88
71772;BME280;59606;52.138;5.424;2022-12-18T14:54:05;102448.41;;;-1.28;83.39
71772;BME280;59606;52.138;5.424;2022-12-18T14:57:18;102451.03;;;-1.27;84.06
71772;BME280;59606;52.138;5.424;2022-12-18T15:00:21;102447.59;;;-1.27;83.29